createdAt,value
2023-02-01T00:04:32.793Z,5.03
2023-02-01T00:10:34.518Z,4.53
2023-02-01T00:16:36.553Z,4.68
2023-02-01T00:22:38.302Z,4.40
2023-02-01T00:28:40.063Z,3.95
2023-02-01T00:34:41.930Z,4.43
2023-02-01T00:40:43.801Z,4.30
2023-02-01T00:46:45.811Z,4.07
2023-02-01T00:52:49.005Z,4.68
2023-02-01T00:58:51.093Z,4.40
2023-02-01T01:04:52.914Z,4.28
2023-02-01T01:10:54.800Z,4.85
2023-02-01T01:16:56.580Z,4.28
2023-02-01T01:22:58.290Z,4.53
2023-02-01T01:29:00.708Z,4.43
2023-02-01T01:35:02.476Z,4.55
2023-02-01T01:41:04.459Z,3.80
2023-02-01T01:47:06.392Z,4.35
2023-02-01T01:53:12.030Z,4.82
2023-02-01T01:59:13.828Z,3.95
2023-02-01T02:05:17.900Z,5.15
2023-02-01T02:11:20.531Z,4.85
2023-02-01T02:17:42.022Z,4.72
2023-02-01T02:24:02.724Z,4.35
2023-02-01T02:30:41.754Z,4.95
2023-02-01T02:36:58.704Z,5.38
2023-02-01T02:43:44.290Z,4.20
2023-02-01T02:50:15.190Z,5.25
2023-02-01T02:56:38.603Z,4.57
2023-02-01T03:02:59.971Z,4.60
2023-02-01T03:09:44.761Z,4.05
2023-02-01T03:16:14.790Z,4.47
2023-02-01T03:22:25.452Z,4.32
2023-02-01T03:28:30.102Z,5.63
2023-02-01T03:34:33.188Z,4.82
2023-02-01T03:40:37.583Z,5.13
2023-02-01T03:47:00.563Z,5.55
2023-02-01T03:53:13.117Z,5.47
2023-02-01T03:59:15.583Z,5.53
2023-02-01T04:05:17.751Z,5.68
2023-02-01T04:11:30.072Z,5.43
2023-02-01T04:17:32.062Z,5.63
2023-02-01T04:23:33.875Z,5.35
2023-02-01T04:29:37.265Z,5.72
2023-02-01T04:35:38.994Z,6.18
2023-02-01T04:41:40.766Z,5.20
2023-02-01T04:47:42.484Z,5.45
2023-02-01T04:53:44.613Z,5.18
2023-02-01T04:59:46.328Z,4.38
2023-02-01T05:05:51.352Z,5.38
2023-02-01T05:12:11.981Z,5.10
2023-02-01T05:18:14.068Z,5.72
2023-02-01T05:24:20.667Z,4.93
2023-02-01T05:30:22.736Z,5.43
2023-02-01T05:36:25.126Z,5.57
2023-02-01T05:42:26.895Z,5.30
2023-02-01T05:48:28.648Z,5.38
2023-02-01T05:54:30.409Z,5.07
2023-02-01T06:00:32.690Z,5.28
2023-02-01T06:06:35.073Z,5.63
2023-02-01T06:12:36.926Z,5.22
2023-02-01T06:18:38.799Z,5.38
2023-02-01T06:24:41.842Z,5.40
2023-02-01T06:30:46.945Z,5.05
2023-02-01T06:36:49.322Z,4.40
2023-02-01T06:42:51.046Z,4.13
2023-02-01T06:48:52.833Z,4.45
2023-02-01T06:54:54.723Z,4.38
2023-02-01T07:00:56.472Z,4.10
2023-02-01T07:06:58.300Z,5.07
2023-02-01T07:13:00.640Z,5.22
2023-02-01T07:19:02.807Z,4.90
2023-02-01T07:25:06.588Z,5.53
2023-02-01T07:31:19.135Z,5.40
2023-02-01T07:37:20.942Z,5.63
2023-02-01T07:43:22.678Z,4.85
2023-02-01T07:49:24.503Z,5.72
2023-02-01T07:55:26.361Z,6.68
2023-02-01T08:01:29.798Z,5.65
2023-02-01T08:07:31.578Z,7.30
2023-02-01T08:13:35.198Z,5.03
2023-02-01T08:19:36.901Z,5.70
2023-02-01T08:25:39.758Z,5.35
2023-02-01T08:31:42.721Z,5.53
2023-02-01T08:37:44.464Z,4.13
2023-02-01T08:43:46.776Z,3.83
2023-02-01T08:49:48.543Z,3.63
2023-02-01T08:55:51.317Z,2.95
2023-02-01T09:01:53.105Z,3.28
2023-02-01T09:07:54.799Z,2.95
2023-02-01T09:13:56.498Z,3.70
2023-02-01T09:19:58.329Z,4.70
2023-02-01T09:26:01.400Z,3.67
2023-02-01T09:32:04.556Z,4.35
2023-02-01T09:38:06.593Z,4.22
2023-02-01T09:44:08.518Z,3.42
2023-02-01T09:50:21.969Z,3.20
2023-02-01T09:56:30.230Z,3.63
2023-02-01T10:02:39.744Z,3.72
2023-02-01T10:08:58.260Z,3.13
2023-02-01T10:15:37.475Z,3.47
2023-02-01T10:22:05.034Z,3.78
2023-02-01T10:28:16.560Z,3.97
2023-02-01T10:34:26.119Z,3.20
2023-02-01T10:40:27.915Z,2.70
2023-02-01T10:46:31.222Z,3.30
2023-02-01T10:53:07.785Z,2.65
2023-02-01T10:59:25.781Z,3.85
2023-02-01T11:11:30.141Z,3.40
2023-02-01T11:17:37.262Z,3.38
2023-02-01T11:23:45.579Z,3.43
2023-02-01T11:29:51.393Z,3.70
2023-02-01T11:35:53.480Z,3.95
2023-02-01T11:42:01.385Z,3.38
2023-02-01T11:48:26.327Z,3.47
2023-02-01T11:54:31.467Z,4.32
2023-02-01T12:00:46.617Z,4.20
2023-02-01T12:06:55.269Z,3.53
2023-02-01T12:13:09.215Z,3.63
2023-02-01T12:19:38.771Z,4.43
2023-02-01T12:26:02.205Z,4.50
2023-02-01T12:32:29.426Z,4.40
2023-02-01T12:38:54.369Z,4.50
2023-02-01T12:45:27.501Z,5.47
2023-02-01T12:51:41.195Z,4.82
2023-02-01T12:57:47.197Z,5.07
2023-02-01T13:03:58.384Z,4.38
2023-02-01T13:10:24.435Z,5.20
2023-02-01T13:16:29.912Z,5.30
2023-02-01T13:22:37.675Z,5.85
2023-02-01T13:28:50.377Z,5.25
2023-02-01T13:35:00.612Z,5.63
2023-02-01T13:41:25.505Z,6.15
2023-02-01T13:47:35.163Z,5.75
2023-02-01T13:53:38.823Z,5.47
2023-02-01T13:59:40.503Z,5.07
2023-02-01T14:05:42.177Z,5.80
2023-02-01T14:11:47.669Z,4.82
2023-02-01T14:17:49.874Z,4.97
2023-02-01T14:23:54.716Z,4.90
2023-02-01T14:30:02.511Z,4.40
2023-02-01T14:36:08.774Z,5.38
2023-02-01T14:42:35.495Z,5.13
2023-02-01T14:48:37.145Z,4.63
2023-02-01T14:54:41.031Z,4.53
2023-02-01T15:00:51.283Z,7.05
2023-02-01T15:06:58.949Z,3.95
2023-02-01T15:13:01.246Z,1.73
2023-02-01T15:19:14.674Z,2.22
2023-02-01T15:25:22.729Z,2.67
2023-02-01T15:31:42.548Z,1.83
2023-02-01T15:37:44.388Z,1.17
2023-02-01T15:43:56.528Z,0.80
2023-02-01T15:50:01.355Z,1.40
2023-02-01T15:56:06.192Z,0.90
2023-02-01T16:02:26.889Z,1.27
2023-02-01T16:08:30.432Z,1.35
2023-02-01T16:14:33.309Z,2.47
2023-02-01T16:20:36.387Z,2.20
2023-02-01T16:26:39.226Z,3.33
2023-02-01T16:32:41.129Z,2.97
2023-02-01T16:38:43.163Z,4.20
2023-02-01T16:44:45.037Z,2.85
2023-02-01T16:50:50.241Z,2.78
2023-02-01T16:56:52.010Z,2.80
2023-02-01T17:02:54.167Z,2.33
2023-02-01T17:09:00.794Z,0.90
2023-02-01T17:15:02.697Z,1.40
2023-02-01T17:21:05.786Z,1.23
2023-02-01T17:27:08.295Z,1.70
2023-02-01T17:33:22.312Z,2.00
2023-02-01T17:39:42.890Z,1.80
2023-02-01T17:46:46.232Z,2.08
2023-02-01T17:53:22.393Z,2.45
2023-02-01T17:59:24.331Z,3.03
2023-02-01T18:05:44.683Z,2.97
2023-02-01T18:11:47.936Z,3.10
2023-02-01T18:17:49.827Z,2.78
2023-02-01T18:23:51.807Z,3.00
2023-02-01T18:29:53.595Z,3.10
2023-02-01T18:35:55.345Z,3.20
2023-02-01T18:41:57.214Z,3.65
2023-02-01T18:47:59.987Z,3.78
2023-02-01T18:54:01.977Z,3.95
2023-02-01T19:00:06.763Z,4.40
2023-02-01T19:06:08.782Z,4.28
2023-02-01T19:12:10.547Z,4.32
2023-02-01T19:18:12.680Z,5.05
2023-02-01T19:24:14.963Z,5.07
2023-02-01T19:30:18.519Z,4.43
2023-02-01T19:36:20.362Z,3.60
2023-02-01T19:42:22.236Z,3.22
2023-02-01T19:48:24.471Z,3.00
2023-02-01T19:54:26.389Z,3.92
2023-02-01T20:00:27.650Z,3.65
2023-02-01T20:06:31.330Z,3.35
2023-02-01T20:12:33.324Z,4.03
2023-02-01T20:18:36.437Z,3.53
2023-02-01T20:25:04.331Z,3.95
2023-02-01T20:31:09.050Z,3.22
2023-02-01T20:37:11.002Z,3.80
2023-02-01T20:43:13.158Z,3.65
2023-02-01T20:49:15.026Z,3.95
2023-02-01T20:55:16.983Z,5.03
2023-02-01T21:01:18.904Z,4.05
2023-02-01T21:07:20.883Z,3.88
2023-02-01T21:13:23.770Z,4.35
2023-02-01T21:19:27.988Z,4.30
2023-02-01T21:25:30.014Z,3.38
2023-02-01T21:31:34.660Z,4.05
2023-02-01T21:37:40.114Z,3.83
2023-02-01T21:43:43.514Z,4.05
2023-02-01T21:49:46.848Z,3.17
2023-02-01T21:55:51.124Z,2.95
2023-02-01T22:01:55.499Z,3.42
2023-02-01T22:07:58.183Z,3.70
2023-02-01T22:14:03.211Z,3.85
2023-02-01T22:20:05.926Z,3.65
2023-02-01T22:26:09.931Z,3.30
2023-02-01T22:32:13.805Z,3.25
2023-02-01T22:38:16.747Z,3.17
2023-02-01T22:44:18.511Z,3.08
2023-02-01T22:50:20.282Z,2.60
2023-02-01T22:56:23.171Z,3.13
2023-02-01T23:02:24.967Z,3.55
2023-02-01T23:08:26.973Z,3.05
2023-02-01T23:14:28.883Z,3.03
2023-02-01T23:20:30.705Z,3.80
2023-02-01T23:26:33.006Z,2.55
2023-02-01T23:32:35.995Z,2.83
2023-02-01T23:38:37.856Z,2.78
2023-02-01T23:44:39.594Z,3.00
2023-02-01T23:50:41.326Z,2.58
2023-02-01T23:56:44.998Z,2.55
